CTN416 LDZA-EDDF
Flight info
| Callsign | CTN416 |
|---|---|
| Flight time | 1h 5m |
| Altitude | 36000 |
| Route | PODET DCT RADLY DCT SIMBA DCT AKINI T161 DEBHI DEBHI1B |
| Aircraft | A319/M-SDE3FGHIRWY/LB1 |
Departure
| Time | 2026-05-04 21:20 |
|---|---|
| Airport | Zagreb Franjo Tuđman International Airport (LDZA) |
Arrival
| Time | 2026-05-04 22:25 |
|---|---|
| Airport | Frankfurt Main Airport (EDDF) |
| Time | Latitude | Longitude | Altitude | Speed | Heading |
|---|---|---|---|---|---|
| 2026-05-04 20:55 | 45.74264 | 16.07963 | 359 ft | 0 kts | 136° |
| 2026-05-04 21:07 | 45.74270 | 16.07955 | 361 ft | 2 kts | 136° |
| 2026-05-04 21:07 | 45.74281 | 16.07941 | 361 ft | 2 kts | 136° |
| 2026-05-04 21:07 | 45.74291 | 16.07927 | 362 ft | 2 kts | 136° |
| 2026-05-04 21:08 | 45.74301 | 16.07913 | 359 ft | 2 kts | 136° |
| 2026-05-04 21:08 | 45.74311 | 16.07899 | 361 ft | 2 kts | 136° |
| 2026-05-04 21:08 | 45.74322 | 16.07886 | 359 ft | 2 kts | 175° |
| 2026-05-04 21:08 | 45.74336 | 16.07888 | 362 ft | 2 kts | 212° |
| 2026-05-04 21:09 | 45.74346 | 16.07900 | 361 ft | 2 kts | 223° |
| 2026-05-04 21:09 | 45.74353 | 16.07909 | 364 ft | 0 kts | 223° |
| 2026-05-04 21:11 | 45.74349 | 16.07903 | 362 ft | 3 kts | 223° |
| 2026-05-04 21:11 | 45.74324 | 16.07867 | 362 ft | 7 kts | 227° |
| 2026-05-04 21:12 | 45.74283 | 16.07803 | 363 ft | 10 kts | 227° |
| 2026-05-04 21:12 | 45.74228 | 16.07720 | 359 ft | 13 kts | 226° |
| 2026-05-04 21:12 | 45.74167 | 16.07628 | 361 ft | 12 kts | 226° |
| 2026-05-04 21:12 | 45.74107 | 16.07537 | 359 ft | 12 kts | 226° |
| 2026-05-04 21:13 | 45.74058 | 16.07437 | 366 ft | 12 kts | 265° |
| 2026-05-04 21:13 | 45.74113 | 16.07344 | 359 ft | 12 kts | 317° |
| 2026-05-04 21:13 | 45.74182 | 16.07252 | 359 ft | 15 kts | 317° |
| 2026-05-04 21:13 | 45.74236 | 16.07205 | 359 ft | 9 kts | 2° |
| 2026-05-04 21:14 | 45.74287 | 16.07265 | 359 ft | 10 kts | 46° |
| 2026-05-04 21:14 | 45.74336 | 16.07338 | 362 ft | 11 kts | 46° |
| 2026-05-04 21:14 | 45.74393 | 16.07425 | 359 ft | 14 kts | 46° |
| 2026-05-04 21:14 | 45.74467 | 16.07537 | 359 ft | 17 kts | 47° |
| 2026-05-04 21:15 | 45.74555 | 16.07673 | 359 ft | 20 kts | 47° |
| 2026-05-04 21:15 | 45.74660 | 16.07832 | 359 ft | 23 kts | 47° |
| 2026-05-04 21:15 | 45.74771 | 16.08002 | 359 ft | 18 kts | 47° |
| 2026-05-04 21:15 | 45.74792 | 16.08032 | 363 ft | 3 kts | 45° |
| 2026-05-04 21:16 | 45.74805 | 16.08052 | 358 ft | 0 kts | 45° |
| 2026-05-04 21:16 | 45.74812 | 16.08061 | 358 ft | 2 kts | 45° |
| 2026-05-04 21:17 | 45.74828 | 16.08078 | 363 ft | 4 kts | 23° |
| 2026-05-04 21:17 | 45.74855 | 16.08072 | 358 ft | 4 kts | 336° |
| 2026-05-04 21:17 | 45.74879 | 16.08041 | 358 ft | 5 kts | 316° |
| 2026-05-04 21:17 | 45.74907 | 16.08003 | 360 ft | 6 kts | 316° |
| 2026-05-04 21:18 | 45.74941 | 16.07957 | 358 ft | 7 kts | 316° |
| 2026-05-04 21:18 | 45.74986 | 16.07939 | 361 ft | 7 kts | 19° |
| 2026-05-04 21:18 | 45.75024 | 16.07992 | 358 ft | 8 kts | 47° |
| 2026-05-04 21:18 | 45.75064 | 16.08053 | 364 ft | 9 kts | 47° |
| 2026-05-04 21:19 | 45.75108 | 16.08119 | 358 ft | 10 kts | 47° |
| 2026-05-04 21:19 | 45.75135 | 16.08214 | 362 ft | 11 kts | 89° |
| 2026-05-04 21:19 | 45.75174 | 16.08240 | 358 ft | 5 kts | 318° |
| 2026-05-04 21:19 | 45.75166 | 16.08203 | 362 ft | 4 kts | 227° |
| 2026-05-04 21:20 | 45.75134 | 16.08153 | 358 ft | 19 kts | 227° |
| 2026-05-04 21:20 | 45.74847 | 16.07719 | 364 ft | 98 kts | 226° |
| 2026-05-04 21:20 | 45.74232 | 16.06784 | 390 ft | 153 kts | 226° |
| 2026-05-04 21:20 | 45.73516 | 16.05684 | 1072 ft | 149 kts | 228° |
| 2026-05-04 21:21 | 45.72786 | 16.04495 | 1529 ft | 169 kts | 230° |
| 2026-05-04 21:21 | 45.71960 | 16.03138 | 1929 ft | 191 kts | 230° |
| 2026-05-04 21:21 | 45.71033 | 16.01619 | 2357 ft | 214 kts | 231° |
| 2026-05-04 21:21 | 45.70008 | 15.99946 | 2847 ft | 238 kts | 231° |
| 2026-05-04 21:22 | 45.68891 | 15.98134 | 3669 ft | 248 kts | 230° |
| 2026-05-04 21:22 | 45.67732 | 15.96224 | 4659 ft | 253 kts | 233° |
| 2026-05-04 21:22 | 45.67041 | 15.93902 | 5566 ft | 261 kts | 261° |
| 2026-05-04 21:22 | 45.67223 | 15.91332 | 6523 ft | 272 kts | 287° |
| 2026-05-04 21:23 | 45.68267 | 15.89036 | 7406 ft | 284 kts | 314° |
| 2026-05-04 21:23 | 45.69983 | 15.87557 | 8325 ft | 294 kts | 336° |
| 2026-05-04 21:23 | 45.71952 | 15.86677 | 9280 ft | 298 kts | 342° |
| 2026-05-04 21:23 | 45.73972 | 15.85909 | 10209 ft | 302 kts | 343° |
| 2026-05-04 21:24 | 45.76091 | 15.85110 | 10587 ft | 326 kts | 343° |
| 2026-05-04 21:24 | 45.78369 | 15.84243 | 10868 ft | 350 kts | 343° |
| 2026-05-04 21:24 | 45.80779 | 15.83317 | 11373 ft | 364 kts | 343° |
| 2026-05-04 21:24 | 45.83248 | 15.82364 | 12104 ft | 370 kts | 343° |
| 2026-05-04 21:25 | 45.85749 | 15.81392 | 12866 ft | 375 kts | 343° |
| 2026-05-04 21:25 | 45.88279 | 15.80398 | 13630 ft | 379 kts | 343° |
| 2026-05-04 21:25 | 45.90834 | 15.79376 | 14339 ft | 383 kts | 343° |
| 2026-05-04 21:25 | 45.93413 | 15.78339 | 15033 ft | 386 kts | 343° |
| 2026-05-04 21:26 | 45.95983 | 15.77203 | 15704 ft | 389 kts | 338° |
| 2026-05-04 21:26 | 45.98487 | 15.75681 | 16375 ft | 392 kts | 335° |
| 2026-05-04 21:26 | 46.00974 | 15.74021 | 17044 ft | 395 kts | 333° |
| 2026-05-04 21:26 | 46.03471 | 15.72303 | 17714 ft | 399 kts | 333° |
| 2026-05-04 21:27 | 46.05982 | 15.70566 | 18387 ft | 402 kts | 333° |
| 2026-05-04 21:27 | 46.08515 | 15.68807 | 18983 ft | 405 kts | 333° |
| 2026-05-04 21:27 | 46.11068 | 15.67039 | 19593 ft | 408 kts | 333° |
| 2026-05-04 21:27 | 46.13635 | 15.65266 | 20223 ft | 410 kts | 333° |
| 2026-05-04 21:28 | 46.16215 | 15.63484 | 20817 ft | 412 kts | 333° |
| 2026-05-04 21:28 | 46.18773 | 15.61719 | 21396 ft | 414 kts | 333° |
| 2026-05-04 21:28 | 46.21384 | 15.59918 | 21964 ft | 417 kts | 333° |
| 2026-05-04 21:28 | 46.24008 | 15.58108 | 22522 ft | 419 kts | 333° |
| 2026-05-04 21:29 | 46.26657 | 15.56280 | 23070 ft | 421 kts | 333° |
| 2026-05-04 21:29 | 46.29312 | 15.54448 | 23606 ft | 424 kts | 333° |
| 2026-05-04 21:29 | 46.31977 | 15.52611 | 24051 ft | 426 kts | 333° |
| 2026-05-04 21:29 | 46.34663 | 15.50762 | 24480 ft | 428 kts | 333° |
| 2026-05-04 21:30 | 46.37360 | 15.48906 | 24894 ft | 430 kts | 333° |
| 2026-05-04 21:30 | 46.40071 | 15.47035 | 25289 ft | 433 kts | 333° |
| 2026-05-04 21:30 | 46.42809 | 15.45146 | 25728 ft | 435 kts | 333° |
| 2026-05-04 21:30 | 46.45556 | 15.43268 | 26095 ft | 439 kts | 333° |
| 2026-05-04 21:31 | 46.50785 | 15.38814 | 26812 ft | 440 kts | 316° |
| 2026-05-04 21:31 | 46.53062 | 15.35830 | 27196 ft | 442 kts | 315° |
| 2026-05-04 21:31 | 46.55346 | 15.32827 | 27606 ft | 444 kts | 315° |
| 2026-05-04 21:32 | 46.57642 | 15.29805 | 27978 ft | 446 kts | 316° |
| 2026-05-04 21:32 | 46.59949 | 15.26763 | 28338 ft | 448 kts | 316° |
| 2026-05-04 21:32 | 46.62264 | 15.23701 | 28692 ft | 450 kts | 316° |
| 2026-05-04 21:32 | 46.63801 | 15.21667 | 28932 ft | 452 kts | 316° |
| 2026-05-04 21:33 | 46.66130 | 15.18579 | 29284 ft | 454 kts | 316° |
| 2026-05-04 21:33 | 46.68464 | 15.15479 | 29614 ft | 456 kts | 316° |
| 2026-05-04 21:33 | 46.70819 | 15.12351 | 29928 ft | 458 kts | 316° |
| 2026-05-04 21:33 | 46.73176 | 15.09222 | 30309 ft | 458 kts | 316° |
| 2026-05-04 21:34 | 46.75528 | 15.06096 | 30735 ft | 457 kts | 316° |
| 2026-05-04 21:34 | 46.77853 | 15.03000 | 31156 ft | 455 kts | 316° |
| 2026-05-04 21:34 | 46.80203 | 14.99866 | 31586 ft | 454 kts | 316° |
| 2026-05-04 21:34 | 46.82534 | 14.96755 | 32025 ft | 452 kts | 314° |
| 2026-05-04 21:35 | 46.84845 | 14.93665 | 32509 ft | 449 kts | 314° |
| 2026-05-04 21:35 | 46.87146 | 14.90586 | 32908 ft | 445 kts | 315° |
| 2026-05-04 21:35 | 46.89380 | 14.87593 | 33043 ft | 429 kts | 315° |
| 2026-05-04 21:35 | 46.91581 | 14.84638 | 33199 ft | 428 kts | 315° |
| 2026-05-04 21:36 | 46.93771 | 14.81690 | 33467 ft | 428 kts | 315° |
| 2026-05-04 21:36 | 46.95956 | 14.78747 | 33739 ft | 427 kts | 315° |
| 2026-05-04 21:36 | 46.98143 | 14.75798 | 34014 ft | 426 kts | 315° |
| 2026-05-04 21:36 | 47.00326 | 14.72851 | 34263 ft | 426 kts | 315° |
| 2026-05-04 21:37 | 47.02504 | 14.69906 | 34504 ft | 425 kts | 315° |
| 2026-05-04 21:37 | 47.04670 | 14.66975 | 34742 ft | 424 kts | 315° |
| 2026-05-04 21:37 | 47.06813 | 14.64072 | 34961 ft | 424 kts | 315° |
| 2026-05-04 21:38 | 47.11138 | 14.58200 | 35031 ft | 423 kts | 315° |
| 2026-05-04 21:38 | 47.15455 | 14.52330 | 35031 ft | 423 kts | 315° |
| 2026-05-04 21:39 | 47.19772 | 14.46454 | 35036 ft | 423 kts | 315° |
| 2026-05-04 21:39 | 47.24091 | 14.40560 | 35034 ft | 423 kts | 314° |
| 2026-05-04 21:40 | 47.28395 | 14.34669 | 35029 ft | 423 kts | 314° |
| 2026-05-04 21:40 | 47.32705 | 14.28763 | 35026 ft | 422 kts | 314° |
| 2026-05-04 21:41 | 47.37005 | 14.22860 | 35025 ft | 423 kts | 314° |
| 2026-05-04 21:41 | 47.41307 | 14.16937 | 35017 ft | 423 kts | 314° |
| 2026-05-04 21:42 | 47.45595 | 14.11003 | 35000 ft | 423 kts | 314° |
| 2026-05-04 21:42 | 47.49891 | 14.05047 | 34999 ft | 423 kts | 314° |
| 2026-05-04 21:43 | 47.54161 | 13.99134 | 35147 ft | 423 kts | 314° |
| 2026-05-04 21:43 | 47.56305 | 13.96155 | 35398 ft | 423 kts | 314° |
| 2026-05-04 21:43 | 47.58444 | 13.93170 | 35655 ft | 422 kts | 314° |
| 2026-05-04 21:43 | 47.60583 | 13.90183 | 35896 ft | 424 kts | 314° |
| 2026-05-04 21:44 | 47.62731 | 13.87182 | 35979 ft | 424 kts | 314° |
| 2026-05-04 21:44 | 47.67051 | 13.81142 | 35972 ft | 434 kts | 314° |
| 2026-05-04 21:45 | 47.71505 | 13.74897 | 35971 ft | 444 kts | 314° |
| 2026-05-04 21:45 | 47.76004 | 13.68587 | 35951 ft | 445 kts | 314° |
| 2026-05-04 21:46 | 47.80499 | 13.62262 | 35955 ft | 445 kts | 314° |
| 2026-05-04 21:46 | 47.85000 | 13.55908 | 35946 ft | 446 kts | 313° |
| 2026-05-04 21:47 | 47.89477 | 13.49568 | 35945 ft | 446 kts | 313° |
| 2026-05-04 21:47 | 47.93973 | 13.43194 | 35933 ft | 446 kts | 313° |
| 2026-05-04 21:48 | 47.98461 | 13.36812 | 35925 ft | 446 kts | 313° |
| 2026-05-04 21:48 | 48.02946 | 13.30422 | 35919 ft | 446 kts | 313° |
| 2026-05-04 21:49 | 48.07429 | 13.24010 | 35920 ft | 446 kts | 313° |
| 2026-05-04 21:49 | 48.11901 | 13.17593 | 35909 ft | 446 kts | 313° |
| 2026-05-04 21:50 | 48.16351 | 13.11199 | 35909 ft | 446 kts | 313° |
| 2026-05-04 21:50 | 48.20827 | 13.04746 | 35908 ft | 446 kts | 313° |
| 2026-05-04 21:51 | 48.24859 | 12.97717 | 35910 ft | 442 kts | 302° |
| 2026-05-04 21:51 | 48.28429 | 12.90189 | 35924 ft | 443 kts | 302° |
| 2026-05-04 21:52 | 48.32007 | 12.82639 | 35921 ft | 443 kts | 302° |
| 2026-05-04 21:52 | 48.35574 | 12.75086 | 35921 ft | 443 kts | 302° |
| 2026-05-04 21:53 | 48.39116 | 12.67563 | 35922 ft | 443 kts | 302° |
| 2026-05-04 21:53 | 48.42678 | 12.59976 | 35916 ft | 444 kts | 302° |
| 2026-05-04 21:54 | 48.46235 | 12.52372 | 35913 ft | 444 kts | 302° |
| 2026-05-04 21:54 | 48.49780 | 12.44765 | 35909 ft | 443 kts | 302° |
| 2026-05-04 21:55 | 48.53320 | 12.37152 | 35913 ft | 443 kts | 302° |
| 2026-05-04 21:55 | 48.56866 | 12.29528 | 35916 ft | 444 kts | 302° |
| 2026-05-04 21:56 | 48.60409 | 12.21895 | 35942 ft | 444 kts | 302° |
| 2026-05-04 21:56 | 48.63941 | 12.14241 | 35933 ft | 444 kts | 302° |
| 2026-05-04 21:57 | 48.67476 | 12.06566 | 35951 ft | 444 kts | 302° |
| 2026-05-04 21:57 | 48.71002 | 11.98890 | 35957 ft | 444 kts | 302° |
| 2026-05-04 21:58 | 48.74521 | 11.91182 | 35958 ft | 444 kts | 302° |
| 2026-05-04 21:58 | 48.78037 | 11.83472 | 35975 ft | 445 kts | 301° |
| 2026-05-04 21:59 | 48.81533 | 11.75801 | 35966 ft | 445 kts | 301° |
| 2026-05-04 21:59 | 48.85053 | 11.68060 | 35961 ft | 446 kts | 301° |
| 2026-05-04 22:00 | 48.88556 | 11.60295 | 35955 ft | 446 kts | 301° |
| 2026-05-04 22:00 | 48.92055 | 11.52508 | 35956 ft | 446 kts | 301° |
| 2026-05-04 22:01 | 48.95568 | 11.44725 | 35982 ft | 446 kts | 301° |
| 2026-05-04 22:01 | 48.99069 | 11.36940 | 35970 ft | 446 kts | 300° |
| 2026-05-04 22:02 | 49.02556 | 11.29132 | 35978 ft | 445 kts | 300° |
| 2026-05-04 22:02 | 49.06032 | 11.21332 | 35980 ft | 445 kts | 300° |
| 2026-05-04 22:03 | 49.09506 | 11.13528 | 35982 ft | 445 kts | 300° |
| 2026-05-04 22:03 | 49.12973 | 11.05709 | 35998 ft | 444 kts | 300° |
| 2026-05-04 22:04 | 49.16426 | 10.97892 | 36005 ft | 444 kts | 300° |
| 2026-05-04 22:04 | 49.19873 | 10.90056 | 35499 ft | 445 kts | 300° |
| 2026-05-04 22:04 | 49.21597 | 10.86135 | 35018 ft | 443 kts | 300° |
| 2026-05-04 22:05 | 49.23312 | 10.82232 | 34505 ft | 441 kts | 300° |
| 2026-05-04 22:05 | 49.25023 | 10.78331 | 34029 ft | 441 kts | 300° |
| 2026-05-04 22:05 | 49.26729 | 10.74435 | 33481 ft | 442 kts | 300° |
| 2026-05-04 22:05 | 49.28420 | 10.70564 | 32960 ft | 443 kts | 299° |
| 2026-05-04 22:06 | 49.30155 | 10.66581 | 32428 ft | 445 kts | 299° |
| 2026-05-04 22:06 | 49.31843 | 10.62702 | 32048 ft | 446 kts | 299° |
| 2026-05-04 22:06 | 49.33573 | 10.58727 | 31955 ft | 447 kts | 299° |
| 2026-05-04 22:07 | 49.37031 | 10.50770 | 31991 ft | 449 kts | 299° |
| 2026-05-04 22:07 | 49.40493 | 10.42793 | 31972 ft | 451 kts | 299° |
| 2026-05-04 22:08 | 49.43971 | 10.34724 | 31971 ft | 454 kts | 299° |
| 2026-05-04 22:08 | 49.45705 | 10.30692 | 31664 ft | 450 kts | 299° |
| 2026-05-04 22:08 | 49.47426 | 10.26697 | 31133 ft | 447 kts | 299° |
| 2026-05-04 22:08 | 49.49149 | 10.22700 | 30523 ft | 449 kts | 298° |
| 2026-05-04 22:09 | 49.50872 | 10.18687 | 29890 ft | 451 kts | 298° |
| 2026-05-04 22:09 | 49.52604 | 10.14639 | 29199 ft | 453 kts | 299° |
| 2026-05-04 22:09 | 49.54328 | 10.10600 | 28443 ft | 449 kts | 299° |
| 2026-05-04 22:09 | 49.56019 | 10.06644 | 27700 ft | 434 kts | 299° |
| 2026-05-04 22:10 | 49.57655 | 10.02811 | 26968 ft | 422 kts | 299° |
| 2026-05-04 22:10 | 49.59249 | 9.99065 | 26258 ft | 414 kts | 299° |
| 2026-05-04 22:10 | 49.60819 | 9.95371 | 25560 ft | 409 kts | 299° |
| 2026-05-04 22:10 | 49.62346 | 9.91775 | 24913 ft | 404 kts | 299° |
| 2026-05-04 22:11 | 49.63874 | 9.88163 | 24244 ft | 399 kts | 300° |
| 2026-05-04 22:11 | 49.65380 | 9.84599 | 23600 ft | 394 kts | 300° |
| 2026-05-04 22:11 | 49.66869 | 9.81069 | 22863 ft | 390 kts | 300° |
| 2026-05-04 22:11 | 49.68345 | 9.77567 | 22141 ft | 387 kts | 300° |
| 2026-05-04 22:12 | 49.69807 | 9.74095 | 21445 ft | 383 kts | 300° |
| 2026-05-04 22:12 | 49.71253 | 9.70663 | 20745 ft | 380 kts | 300° |
| 2026-05-04 22:12 | 49.72688 | 9.67256 | 20049 ft | 377 kts | 300° |
| 2026-05-04 22:12 | 49.74112 | 9.63874 | 19366 ft | 373 kts | 300° |
| 2026-05-04 22:13 | 49.75513 | 9.60541 | 18700 ft | 366 kts | 300° |
| 2026-05-04 22:13 | 49.76889 | 9.57260 | 18009 ft | 360 kts | 300° |
| 2026-05-04 22:13 | 49.78239 | 9.54037 | 17265 ft | 355 kts | 300° |
| 2026-05-04 22:13 | 49.79575 | 9.50849 | 16547 ft | 351 kts | 300° |
| 2026-05-04 22:14 | 49.80894 | 9.47698 | 15842 ft | 347 kts | 300° |
| 2026-05-04 22:14 | 49.82191 | 9.44589 | 15149 ft | 343 kts | 300° |
| 2026-05-04 22:14 | 49.83479 | 9.41490 | 14471 ft | 340 kts | 300° |
| 2026-05-04 22:14 | 49.84750 | 9.38425 | 13800 ft | 336 kts | 300° |
| 2026-05-04 22:15 | 49.86066 | 9.35440 | 13055 ft | 334 kts | 306° |
| 2026-05-04 22:15 | 49.87655 | 9.32884 | 12337 ft | 333 kts | 316° |
| 2026-05-04 22:15 | 49.89392 | 9.30535 | 11623 ft | 329 kts | 316° |
| 2026-05-04 22:15 | 49.91110 | 9.28206 | 10929 ft | 325 kts | 316° |
| 2026-05-04 22:16 | 49.92802 | 9.25909 | 10235 ft | 322 kts | 316° |
| 2026-05-04 22:16 | 49.94470 | 9.23641 | 9662 ft | 314 kts | 316° |
| 2026-05-04 22:16 | 49.96092 | 9.21432 | 9091 ft | 306 kts | 316° |
| 2026-05-04 22:16 | 49.97677 | 9.19274 | 8513 ft | 299 kts | 316° |
| 2026-05-04 22:17 | 49.99224 | 9.17169 | 7967 ft | 292 kts | 317° |
| 2026-05-04 22:17 | 50.00978 | 9.15637 | 7438 ft | 289 kts | 340° |
| 2026-05-04 22:17 | 50.02885 | 9.14789 | 7000 ft | 281 kts | 343° |
| 2026-05-04 22:17 | 50.04745 | 9.14043 | 6634 ft | 270 kts | 343° |
| 2026-05-04 22:18 | 50.06536 | 9.13340 | 6269 ft | 261 kts | 344° |
| 2026-05-04 22:18 | 50.08266 | 9.12653 | 5884 ft | 253 kts | 343° |
| 2026-05-04 22:18 | 50.09836 | 9.11554 | 5497 ft | 245 kts | 321° |
| 2026-05-04 22:18 | 50.10978 | 9.09650 | 5121 ft | 240 kts | 304° |
| 2026-05-04 22:19 | 50.11965 | 9.07611 | 4740 ft | 238 kts | 305° |
| 2026-05-04 22:19 | 50.12640 | 9.06228 | 4491 ft | 237 kts | 306° |
| 2026-05-04 22:19 | 50.13483 | 9.04042 | 4111 ft | 233 kts | 288° |
| 2026-05-04 22:19 | 50.13782 | 9.01596 | 4035 ft | 231 kts | 269° |
| 2026-05-04 22:20 | 50.13553 | 8.99138 | 4025 ft | 230 kts | 250° |
| 2026-05-04 22:20 | 50.13006 | 8.96799 | 4023 ft | 230 kts | 249° |
| 2026-05-04 22:20 | 50.12280 | 8.93696 | 4023 ft | 230 kts | 249° |
| 2026-05-04 22:20 | 50.11732 | 8.91358 | 4024 ft | 230 kts | 249° |
| 2026-05-04 22:21 | 50.11363 | 8.89782 | 4014 ft | 230 kts | 249° |
| 2026-05-04 22:21 | 50.10819 | 8.87465 | 4009 ft | 223 kts | 249° |
| 2026-05-04 22:21 | 50.10289 | 8.85209 | 3867 ft | 220 kts | 249° |
| 2026-05-04 22:21 | 50.09763 | 8.82975 | 3603 ft | 219 kts | 249° |
| 2026-05-04 22:22 | 50.09241 | 8.80763 | 3331 ft | 217 kts | 249° |
| 2026-05-04 22:22 | 50.08723 | 8.78566 | 3041 ft | 215 kts | 250° |
| 2026-05-04 22:22 | 50.08215 | 8.76414 | 2757 ft | 215 kts | 250° |
| 2026-05-04 22:22 | 50.07698 | 8.74226 | 2466 ft | 214 kts | 250° |
| 2026-05-04 22:23 | 50.07193 | 8.72090 | 2175 ft | 207 kts | 250° |
| 2026-05-04 22:23 | 50.06707 | 8.70040 | 1937 ft | 193 kts | 250° |
| 2026-05-04 22:23 | 50.06259 | 8.68151 | 1668 ft | 179 kts | 250° |
| 2026-05-04 22:23 | 50.05844 | 8.66400 | 1429 ft | 166 kts | 250° |
| 2026-05-04 22:24 | 50.05458 | 8.64774 | 1219 ft | 153 kts | 250° |
| 2026-05-04 22:24 | 50.05106 | 8.63293 | 1013 ft | 139 kts | 250° |
| 2026-05-04 22:24 | 50.04780 | 8.61921 | 829 ft | 133 kts | 250° |
| 2026-05-04 22:24 | 50.04463 | 8.60581 | 665 ft | 131 kts | 251° |
| 2026-05-04 22:25 | 50.04148 | 8.59259 | 503 ft | 130 kts | 251° |
| 2026-05-04 22:25 | 50.03838 | 8.57941 | 370 ft | 126 kts | 251° |
| 2026-05-04 22:25 | 50.03578 | 8.56859 | 356 ft | 84 kts | 249° |
| 2026-05-04 22:25 | 50.03446 | 8.56296 | 359 ft | 27 kts | 257° |
| 2026-05-04 22:26 | 50.03444 | 8.56002 | 348 ft | 28 kts | 278° |
| 2026-05-04 22:26 | 50.03465 | 8.55802 | 352 ft | 17 kts | 279° |
| 2026-05-04 22:26 | 50.03485 | 8.55621 | 345 ft | 17 kts | 279° |
| 2026-05-04 22:26 | 50.03485 | 8.55439 | 350 ft | 18 kts | 250° |
| 2026-05-04 22:27 | 50.03441 | 8.55254 | 350 ft | 19 kts | 250° |
| 2026-05-04 22:27 | 50.03394 | 8.55058 | 344 ft | 19 kts | 249° |
| 2026-05-04 22:27 | 50.03346 | 8.54860 | 339 ft | 20 kts | 249° |
| 2026-05-04 22:27 | 50.03294 | 8.54646 | 338 ft | 22 kts | 249° |
| 2026-05-04 22:28 | 50.03275 | 8.54522 | 337 ft | 10 kts | 282° |
| 2026-05-04 22:28 | 50.03331 | 8.54469 | 337 ft | 6 kts | 341° |
| 2026-05-04 22:28 | 50.03333 | 8.54468 | 338 ft | 0 kts | 341° |
| 2026-05-04 22:29 | 50.03339 | 8.54465 | 338 ft | 4 kts | 341° |
| 2026-05-04 22:30 | 50.03395 | 8.54435 | 340 ft | 12 kts | 340° |
| 2026-05-04 22:30 | 50.03480 | 8.54385 | 350 ft | 13 kts | 339° |
| 2026-05-04 22:30 | 50.03564 | 8.54336 | 349 ft | 14 kts | 340° |
| 2026-05-04 22:30 | 50.03628 | 8.54303 | 347 ft | 9 kts | 351° |
| 2026-05-04 22:31 | 50.03667 | 8.54356 | 348 ft | 8 kts | 69° |
| 2026-05-04 22:31 | 50.03691 | 8.54454 | 344 ft | 11 kts | 69° |
| 2026-05-04 22:31 | 50.03718 | 8.54568 | 350 ft | 12 kts | 69° |
| 2026-05-04 22:31 | 50.03747 | 8.54691 | 349 ft | 13 kts | 69° |
| 2026-05-04 22:32 | 50.03782 | 8.54836 | 354 ft | 16 kts | 70° |
| 2026-05-04 22:32 | 50.03827 | 8.55026 | 355 ft | 21 kts | 70° |
| 2026-05-04 22:32 | 50.03879 | 8.55245 | 349 ft | 21 kts | 70° |
| 2026-05-04 22:32 | 50.03931 | 8.55462 | 352 ft | 22 kts | 69° |
| 2026-05-04 22:33 | 50.03986 | 8.55690 | 352 ft | 23 kts | 69° |
| 2026-05-04 22:33 | 50.04041 | 8.55920 | 354 ft | 23 kts | 70° |
| 2026-05-04 22:33 | 50.04095 | 8.56149 | 355 ft | 23 kts | 69° |
| 2026-05-04 22:33 | 50.04153 | 8.56390 | 355 ft | 25 kts | 69° |
| 2026-05-04 22:34 | 50.04210 | 8.56626 | 357 ft | 16 kts | 69° |
| 2026-05-04 22:34 | 50.04242 | 8.56762 | 361 ft | 10 kts | 69° |
| 2026-05-04 22:34 | 50.04293 | 8.56812 | 360 ft | 9 kts | 11° |
| 2026-05-04 22:34 | 50.04358 | 8.56832 | 360 ft | 10 kts | 11° |
| 2026-05-04 22:35 | 50.04432 | 8.56851 | 363 ft | 10 kts | 8° |
| 2026-05-04 22:35 | 50.04468 | 8.56884 | 365 ft | 4 kts | 60° |
| 2026-05-04 22:35 | 50.04458 | 8.56924 | 359 ft | 5 kts | 142° |
| 2026-05-04 22:35 | 50.04428 | 8.56942 | 364 ft | 5 kts | 160° |
| 2026-05-04 22:36 | 50.04398 | 8.56960 | 364 ft | 5 kts | 159° |
| 2026-05-04 22:36 | 50.04381 | 8.56970 | 360 ft | 1 kts | 160° |
| 2026-05-04 22:36 | 50.04378 | 8.56971 | 360 ft | 0 kts | 159° |